Time;durP1;ratioP1;P1;durP2;ratioP2;P2;SDS_P1;SDS_P2;PMS_P1;PMS_P2;Temp;Humidity;BMP_temperature;BMP_pressure;BME280_temperature;BME280_humidity;BME280_pressure;Samples;Min_cycle;Max_cycle;Signal;HPM_P1;HPM_P2
2022/08/05 00:02:13;;;;;;;8.55;7.00;;;;;;;21.06;74.34;100465.11;1691114;82;21001;-47
2022/08/05 00:04:39;;;;;;;7.92;5.95;;;;;;;21.05;74.33;100474.17;1691588;84;21190;-47
2022/08/05 00:07:06;;;;;;;8.90;6.95;;;;;;;21.04;74.37;100470.64;1682241;82;21087;-46
2022/08/05 00:09:32;;;;;;;11.15;7.25;;;;;;;21.03;74.48;100471.69;1684939;82;21188;-47
2022/08/05 00:11:59;;;;;;;11.53;7.60;;;;;;;21.02;74.55;100472.69;1687460;83;21092;-47
2022/08/05 00:14:25;;;;;;;9.25;7.40;;;;;;;20.96;74.55;100467.59;1692181;83;21159;-47
2022/08/05 00:16:52;;;;;;;9.05;7.47;;;;;;;20.91;74.82;100470.01;1705181;82;21067;-47
2022/08/05 00:19:18;;;;;;;9.08;6.80;;;;;;;20.93;74.80;100471.98;1698666;82;21337;-47
2022/08/05 00:21:45;;;;;;;9.05;6.92;;;;;;;20.95;74.76;100469.12;1677062;82;21100;-47
2022/08/05 00:24:11;;;;;;;9.43;7.15;;;;;;;20.96;74.72;100468.94;1691644;82;21707;-46
2022/08/05 00:26:38;;;;;;;10.18;7.87;;;;;;;20.99;74.67;100466.89;1696637;82;21575;-47
2022/08/05 00:29:04;;;;;;;12.07;7.67;;;;;;;20.99;74.63;100466.89;1697716;83;21086;-47
2022/08/05 00:31:31;;;;;;;9.95;8.28;;;;;;;20.92;74.65;100466.30;1698725;82;21160;-47
2022/08/05 00:33:57;;;;;;;11.38;7.00;;;;;;;20.88;74.70;100457.50;1695866;83;21013;-47
2022/08/05 00:36:23;;;;;;;10.58;7.20;;;;;;;20.88;74.59;100463.70;1681844;82;21105;-47
2022/08/05 00:38:51;;;;;;;10.75;7.00;;;;;;;20.88;74.35;100457.02;1689213;82;21079;-47
2022/08/05 00:41:31;;;;;;;9.33;7.10;;;;;;;20.87;74.33;100459.88;1682823;82;21093;-46
2022/08/05 00:43:57;;;;;;;9.25;6.80;;;;;;;20.87;74.43;100454.00;1680081;82;21408;-46
2022/08/05 00:46:24;;;;;;;11.28;7.60;;;;;;;20.84;74.60;100453.04;1686634;82;21161;-47
2022/08/05 00:48:50;;;;;;;10.20;7.83;;;;;;;20.80;74.59;100451.77;1692344;84;21839;-47
2022/08/05 00:51:19;;;;;;;10.03;8.00;;;;;;;20.74;74.70;100453.85;1686042;82;21622;-46
2022/08/05 00:53:46;;;;;;;9.50;7.78;;;;;;;20.68;74.84;100451.91;1689264;82;21039;-46
2022/08/05 00:56:15;;;;;;;9.28;7.30;;;;;;;20.69;74.90;100450.91;1694765;83;21088;-46
2022/08/05 00:58:42;;;;;;;10.60;7.85;;;;;;;20.70;74.93;100453.92;1694183;83;21082;-46
2022/08/05 01:01:10;;;;;;;10.48;7.22;;;;;;;20.70;75.00;100448.57;1689934;83;22046;-46
2022/08/05 01:03:39;;;;;;;10.28;8.30;;;;;;;20.75;75.09;100451.51;1702442;83;21130;-46
2022/08/05 01:06:07;;;;;;;10.10;8.58;;;;;;;20.75;75.07;100444.30;1696223;82;21121;-46
2022/08/05 01:08:34;;;;;;;9.78;7.70;;;;;;;20.76;74.90;100451.33;1691985;82;21091;-47
2022/08/05 01:11:21;;;;;;;11.25;7.60;;;;;;;20.77;74.71;100450.80;1698852;82;21097;-46
2022/08/05 01:14:00;;;;;;;9.55;7.45;;;;;;;20.76;74.61;100447.80;1667994;83;21097;-47
2022/08/05 01:16:55;;;;;;;11.93;7.83;;;;;;;20.72;74.60;100437.17;1698645;83;21553;-47
2022/08/05 01:19:44;;;;;;;11.97;8.80;;;;;;;20.75;74.71;100431.45;1697594;83;21119;-47
2022/08/05 01:22:26;;;;;;;10.23;8.03;;;;;;;20.76;74.62;100433.94;1701283;84;21073;-47
2022/08/05 01:25:15;;;;;;;11.97;8.60;;;;;;;20.73;74.72;100434.83;1655206;84;21120;-47
2022/08/05 01:28:05;;;;;;;10.63;7.47;;;;;;;20.72;74.58;100434.50;1666309;84;21157;-47
2022/08/05 01:30:36;;;;;;;10.48;8.25;;;;;;;20.73;74.43;100434.83;1686109;83;21707;-47
2022/08/05 01:33:07;;;;;;;9.33;7.72;;;;;;;20.69;74.52;100429.00;1692744;82;21521;-49
2022/08/05 01:35:33;;;;;;;10.88;8.45;;;;;;;20.68;74.58;100432.72;1685502;84;21114;-46
2022/08/05 01:38:00;;;;;;;10.25;8.25;;;;;;;20.62;74.75;100433.94;1689075;82;21101;-47
2022/08/05 01:40:28;;;;;;;11.25;8.83;;;;;;;20.57;74.98;100439.84;1695707;84;21170;-47
2022/08/05 01:42:56;;;;;;;10.90;7.95;;;;;;;20.56;75.04;100444.37;1692865;82;21117;-47
2022/08/05 01:45:23;;;;;;;12.10;8.18;;;;;;;20.52;75.14;100435.56;1688515;82;21062;-47
2022/08/05 01:47:49;;;;;;;10.43;8.50;;;;;;;20.50;75.38;100431.74;1672685;84;21113;-47
2022/08/05 01:50:38;;;;;;;10.85;9.20;;;;;;;20.49;75.46;100430.07;1679571;83;21062;-46
2022/08/05 01:53:10;;;;;;;11.28;8.55;;;;;;;20.48;75.60;100424.94;1690388;84;21148;-47
2022/08/05 01:55:37;;;;;;;9.93;8.43;;;;;;;20.45;75.81;100427.98;1681679;84;21086;-47
2022/08/05 01:58:06;;;;;;;13.20;8.50;;;;;;;20.45;75.76;100434.14;1679064;84;21058;-47
2022/08/05 02:00:37;;;;;;;12.20;7.62;;;;;;;20.44;75.77;100434.33;1679644;84;21129;-47
2022/08/05 02:03:17;;;;;;;9.53;7.60;;;;;;;20.42;75.92;100443.86;1688566;82;21128;-58
2022/08/05 02:05:44;;;;;;;9.63;7.65;;;;;;;20.42;76.11;100447.88;1665318;84;21254;-58
2022/08/05 02:08:11;;;;;;;9.58;8.25;;;;;;;20.40;76.18;100453.41;1704450;82;21081;-58
2022/08/05 02:11:17;;;;;;;12.58;9.55;;;;;;;20.49;76.57;100444.77;1782726;79;22199;-59
2022/08/05 02:14:14;;;;;;;9.53;7.75;;;;;;;20.57;75.98;100440.66;1747185;80;21532;-59
2022/08/05 02:16:52;;;;;;;;;;;;;;;20.57;76.14;100442.52;1753506;81;21128;-60
2022/08/05 02:19:33;;;;;;;11.03;8.15;;;;;;;20.59;76.09;100445.34;1748756;81;20400;-62
2022/08/05 02:22:14;;;;;;;11.68;8.40;;;;;;;20.65;76.13;100452.31;1726392;81;21097;-57
2022/08/05 02:24:40;;;;;;;10.48;8.90;;;;;;;20.65;76.17;100449.12;1729417;81;21090;-59
2022/08/05 02:27:09;;;;;;;10.78;9.10;;;;;;;20.70;76.23;100454.73;1701048;82;20974;-59
2022/08/05 02:29:36;;;;;;;12.20;9.68;;;;;;;20.75;76.02;100460.34;1700057;83;21146;-59
2022/08/05 02:32:05;;;;;;;10.90;8.95;;;;;;;20.76;75.70;100462.51;1702889;82;21138;-59
2022/08/05 02:34:32;;;;;;;13.93;9.88;;;;;;;20.69;75.36;100461.61;1698443;83;22384;-59
2022/08/05 02:37:01;;;;;;;10.48;8.65;;;;;;;20.60;75.44;100469.70;1693708;82;21079;-59
2022/08/05 02:39:33;;;;;;;12.88;8.48;;;;;;;20.58;75.55;100473.08;1694284;83;21122;-59
2022/08/05 02:41:59;;;;;;;11.75;9.58;;;;;;;20.55;75.65;100468.09;1703934;82;21177;-59
2022/08/05 02:44:25;;;;;;;13.25;9.75;;;;;;;20.51;75.70;100462.81;1712584;83;21039;-59
2022/08/05 02:46:52;;;;;;;13.08;8.90;;;;;;;20.51;75.79;100472.16;1702877;82;21747;-59
2022/08/05 02:49:18;;;;;;;9.50;8.20;;;;;;;20.47;75.83;100472.72;1710145;83;22399;-59
2022/08/05 02:51:44;;;;;;;11.08;8.53;;;;;;;20.42;76.08;100466.58;1689538;83;21142;-59
2022/08/05 02:54:12;;;;;;;11.15;8.58;;;;;;;20.45;75.93;100467.55;1709791;83;21126;-59
2022/08/05 02:56:42;;;;;;;11.00;8.85;;;;;;;20.46;75.92;100465.22;1696794;83;22357;-59
2022/08/05 02:59:12;;;;;;;10.08;8.53;;;;;;;20.52;75.94;100464.45;1704774;83;21146;-57
2022/08/05 03:01:39;;;;;;;10.45;9.13;;;;;;;20.53;75.82;100466.64;1701519;83;21321;-57
2022/08/05 03:04:08;;;;;;;11.65;8.13;;;;;;;20.50;75.84;100471.83;1703859;82;21078;-58
2022/08/05 03:06:34;;;;;;;11.30;7.75;;;;;;;20.47;75.83;100472.20;1709375;83;21901;-58
2022/08/05 03:09:01;;;;;;;9.93;7.58;;;;;;;20.48;75.81;100469.86;1709246;83;21572;-57
2022/08/05 03:11:28;;;;;;;12.33;9.48;;;;;;;20.46;75.71;100467.89;1698639;83;21581;-57
2022/08/05 03:13:54;;;;;;;11.97;9.08;;;;;;;20.45;75.85;100472.90;1676828;84;21040;-60
2022/08/05 03:16:21;;;;;;;10.48;8.83;;;;;;;20.45;75.90;100470.23;1689783;83;21133;-60
2022/08/05 03:18:47;;;;;;;11.55;9.30;;;;;;;20.43;75.92;100460.75;1681585;84;22847;-61
2022/08/05 03:21:14;;;;;;;9.58;8.35;;;;;;;20.41;76.10;100460.94;1695770;82;21178;-57
2022/08/05 03:23:42;;;;;;;14.18;8.95;;;;;;;20.41;75.96;100467.61;1705832;82;21668;-57
2022/08/05 03:26:09;;;;;;;10.93;8.53;;;;;;;20.47;76.01;100470.86;1705461;82;21086;-57
2022/08/05 03:28:35;;;;;;;10.32;8.85;;;;;;;20.51;75.90;100474.84;1706124;82;21188;-58
2022/08/05 03:31:02;;;;;;;13.40;9.88;;;;;;;20.50;75.64;100477.70;1714681;82;21203;-57
2022/08/05 03:33:29;;;;;;;13.48;9.23;;;;;;;20.46;75.78;100466.55;1711336;83;21145;-58
2022/08/05 03:35:57;;;;;;;11.22;9.03;;;;;;;20.47;75.94;100468.70;1694842;82;21106;-58
2022/08/05 03:38:24;;;;;;;12.20;9.15;;;;;;;20.48;76.10;100472.53;1702668;83;21102;-57
2022/08/05 03:40:54;;;;;;;14.58;9.35;;;;;;;20.54;76.09;100468.27;1701562;83;21120;-57
2022/08/05 03:43:23;;;;;;;11.80;8.60;;;;;;;20.61;75.82;100470.55;1698426;83;21181;-58
2022/08/05 03:45:51;;;;;;;12.15;9.70;;;;;;;20.66;75.61;100467.33;1699287;83;21028;-59
2022/08/05 03:48:18;;;;;;;13.20;8.85;;;;;;;20.72;75.58;100463.91;1701468;82;21055;-58
2022/08/05 03:51:12;;;;;;;14.20;10.48;;;;;;;20.73;75.30;100465.58;1696349;82;21066;-59
2022/08/05 03:53:45;;;;;;;13.38;9.83;;;;;;;20.74;75.32;100465.88;1693668;83;21122;-58
2022/08/05 03:56:23;;;;;;;11.75;9.68;;;;;;;20.78;74.98;100466.66;1688766;83;21111;-59
2022/08/05 03:58:49;;;;;;;10.95;9.23;;;;;;;20.82;74.80;100468.45;1697239;83;22436;-59
2022/08/05 04:01:16;;;;;;;13.53;10.40;;;;;;;20.87;74.80;100473.24;1698095;83;21059;-59
2022/08/05 04:03:44;;;;;;;12.82;10.05;;;;;;;20.90;74.49;100478.22;1698810;83;21016;-59
2022/08/05 04:06:10;;;;;;;14.43;11.22;;;;;;;20.93;74.50;100475.14;1694733;83;21712;-59
2022/08/05 04:08:37;;;;;;;11.90;9.90;;;;;;;20.94;74.42;100473.62;1698939;82;21089;-59
2022/08/05 04:11:06;;;;;;;13.90;10.32;;;;;;;20.95;74.32;100471.28;1705886;83;21074;-59
2022/08/05 04:13:32;;;;;;;14.55;10.65;;;;;;;20.97;74.36;100470.58;1684746;83;21108;-59
2022/08/05 04:15:58;;;;;;;15.55;10.38;;;;;;;21.05;74.29;100474.17;1692800;83;21015;-59
2022/08/05 04:18:25;;;;;;;12.58;10.50;;;;;;;21.08;74.06;100477.78;1688474;83;21034;-59
2022/08/05 04:20:55;;;;;;;14.55;10.72;;;;;;;21.12;74.11;100479.08;1710352;82;21128;-59
2022/08/05 04:23:24;;;;;;;13.18;10.85;;;;;;;21.17;74.07;100475.84;1744747;81;21486;-60
2022/08/05 04:25:51;;;;;;;14.00;10.78;;;;;;;21.15;73.99;100472.02;1738753;81;21094;-59
2022/08/05 04:28:19;;;;;;;12.82;10.23;;;;;;;21.16;73.98;100470.97;1745808;81;21068;-59
2022/08/05 04:30:46;;;;;;;17.52;10.30;;;;;;;21.17;73.87;100472.64;1740774;80;21013;-59
2022/08/05 04:33:13;;;;;;;12.73;11.10;;;;;;;21.24;73.89;100472.19;1740954;80;21141;-59
2022/08/05 04:35:41;;;;;;;15.38;10.58;;;;;;;21.31;73.73;100471.73;1734286;81;21062;-59
2022/08/05 04:38:08;;;;;;;14.75;11.08;;;;;;;21.37;73.21;100480.02;1741404;81;21117;-59
2022/08/05 04:40:36;;;;;;;13.72;10.43;;;;;;;21.41;73.11;100467.93;1732443;80;21542;-59
2022/08/05 04:43:02;;;;;;;13.53;10.55;;;;;;;21.48;72.88;100475.53;1742446;81;21007;-59
2022/08/05 04:45:29;;;;;;;17.35;11.00;;;;;;;21.49;72.21;100471.33;1742259;80;21060;-59
2022/08/05 04:48:10;;;;;;;13.75;11.53;;;;;;;21.53;71.93;100467.75;1742877;80;21007;-59
2022/08/05 04:50:44;;;;;;;14.47;10.38;;;;;;;21.57;71.56;100467.70;1743898;81;21501;-59
2022/08/05 04:53:12;;;;;;;12.88;10.00;;;;;;;21.60;71.65;100466.47;1746666;81;21542;-59
2022/08/05 04:55:39;;;;;;;13.75;10.93;;;;;;;21.64;71.63;100471.77;1746248;80;21506;-59
2022/08/05 04:58:08;;;;;;;13.48;10.18;;;;;;;21.64;71.54;100473.11;1745058;80;21962;-60
2022/08/05 05:00:35;;;;;;;13.40;10.23;;;;;;;21.63;71.72;100470.92;1741992;81;21069;-60
2022/08/05 05:03:03;;;;;;;11.80;9.65;;;;;;;21.65;71.46;100470.73;1748265;82;21110;-59
2022/08/05 05:05:30;;;;;;;11.40;9.73;;;;;;;21.65;71.49;100472.92;1746999;81;21138;-60
2022/08/05 05:08:03;;;;;;;13.48;10.65;;;;;;;21.68;71.50;100473.84;1745735;80;21121;-59
2022/08/05 05:10:31;;;;;;;12.70;9.63;;;;;;;21.67;71.49;100471.36;1746613;80;21101;-60
2022/08/05 05:12:58;;;;;;;15.05;10.03;;;;;;;21.60;71.52;100464.64;1745153;80;21551;-60
2022/08/05 05:15:25;;;;;;;12.23;9.23;;;;;;;21.58;71.48;100472.02;1748076;81;21156;-60
2022/08/05 05:17:51;;;;;;;12.30;10.43;;;;;;;21.56;71.58;100472.72;1744250;82;21554;-60
2022/08/05 05:20:18;;;;;;;13.22;9.75;;;;;;;21.56;71.92;100471.38;1745549;80;21112;-60
2022/08/05 05:22:46;;;;;;;13.08;10.95;;;;;;;21.56;71.92;100482.09;1739818;81;22038;-59
2022/08/05 05:25:13;;;;;;;14.58;11.38;;;;;;;21.53;71.90;100481.14;1739678;81;21044;-60
2022/08/05 05:27:40;;;;;;;15.18;11.00;;;;;;;21.46;71.94;100480.23;1748162;80;21058;-60
2022/08/05 05:30:08;;;;;;;12.40;10.40;;;;;;;21.45;72.27;100486.59;1747235;81;21132;-60
2022/08/05 05:32:35;;;;;;;14.80;12.20;;;;;;;21.47;72.51;100487.28;1748996;81;21004;-60
2022/08/05 05:35:01;;;;;;;17.35;12.70;;;;;;;21.49;72.46;100491.41;1747362;81;21115;-60
2022/08/05 05:37:28;;;;;;;14.13;12.25;;;;;;;21.48;72.53;100483.56;1744318;82;21104;-60
2022/08/05 05:39:55;;;;;;;14.68;11.93;;;;;;;21.45;72.59;100490.60;1747129;81;21055;-60
2022/08/05 05:42:21;;;;;;;16.37;12.93;;;;;;;21.39;72.83;100493.55;1748068;80;21043;-60
2022/08/05 05:44:48;;;;;;;14.50;11.88;;;;;;;21.37;72.91;100492.06;1746822;81;21061;-60
2022/08/05 05:47:14;;;;;;;15.80;12.88;;;;;;;21.34;73.12;100490.09;1742222;82;22141;-60
2022/08/05 05:49:40;;;;;;;14.83;12.55;;;;;;;21.37;73.06;100499.61;1749338;82;21001;-61
2022/08/05 05:52:07;;;;;;;16.30;13.03;;;;;;;21.33;73.09;100491.13;1741911;81;21129;-59
2022/08/05 05:54:34;;;;;;;19.37;12.80;;;;;;;21.29;73.41;100497.05;1750688;82;21138;-60
2022/08/05 05:57:00;;;;;;;17.00;14.38;;;;;;;21.30;73.71;100502.21;1745620;80;21726;-59
2022/08/05 05:59:26;;;;;;;18.07;13.48;;;;;;;21.37;73.57;100502.28;1744384;80;21128;-60
2022/08/05 06:01:53;;;;;;;15.83;13.30;;;;;;;21.40;73.53;100509.09;1746038;81;21073;-61
2022/08/05 06:04:19;;;;;;;16.15;13.43;;;;;;;21.41;73.71;100505.41;1748404;82;21033;-60
2022/08/05 06:06:46;;;;;;;17.07;13.72;;;;;;;21.45;73.63;100513.35;1741930;81;21068;-59
2022/08/05 06:09:12;;;;;;;15.53;13.10;;;;;;;21.46;73.65;100511.83;1744980;81;21045;-60
2022/08/05 06:11:39;;;;;;;14.58;12.28;;;;;;;21.48;73.74;100512.48;1748991;81;21133;-62
2022/08/05 06:14:06;;;;;;;17.77;12.95;;;;;;;21.57;73.72;100504.33;1747362;80;21511;-60
2022/08/05 06:16:33;;;;;;;17.20;13.98;;;;;;;21.70;73.19;100501.28;1749043;81;21606;-61
2022/08/05 06:18:59;;;;;;;15.10;13.13;;;;;;;21.83;72.37;100502.41;1753387;81;21062;-62
2022/08/05 06:21:25;;;;;;;16.35;14.00;;;;;;;21.89;72.47;100505.14;1745082;81;21064;-60
2022/08/05 06:23:52;;;;;;;16.87;13.85;;;;;;;21.96;72.21;100499.01;1737730;81;21115;-62
2022/08/05 06:26:18;;;;;;;18.30;15.13;;;;;;;22.03;71.79;100492.66;1752503;81;21003;-60
2022/08/05 06:28:45;;;;;;;18.35;14.23;;;;;;;22.08;70.91;100496.91;1755733;80;21502;-60
2022/08/05 06:31:12;;;;;;;16.05;13.18;;;;;;;22.05;71.12;100499.98;1748128;80;21114;-58
2022/08/05 06:33:38;;;;;;;17.32;14.13;;;;;;;22.05;70.88;100499.16;1751232;81;21847;-59
2022/08/05 06:36:05;;;;;;;16.93;13.35;;;;;;;22.02;70.80;100497.72;1744386;81;22817;-58
2022/08/05 06:38:32;;;;;;;16.17;12.65;;;;;;;22.01;70.60;100502.75;1752007;80;21116;-58
2022/08/05 06:40:59;;;;;;;18.20;13.95;;;;;;;21.99;70.62;100496.77;1750651;81;21554;-57
2022/08/05 06:43:25;;;;;;;16.05;13.45;;;;;;;21.97;70.75;100504.66;1752407;80;21072;-57
2022/08/05 06:45:52;;;;;;;18.67;13.90;;;;;;;21.95;70.89;100499.50;1752721;80;21056;-57
2022/08/05 06:48:18;;;;;;;21.62;15.20;;;;;;;21.96;71.01;100505.19;1744696;81;21119;-57
2022/08/05 06:50:44;;;;;;;15.18;12.88;;;;;;;22.01;71.02;100501.41;1743284;81;21086;-57
2022/08/05 06:53:13;;;;;;;14.47;12.60;;;;;;;22.08;70.89;100505.47;1752653;81;21079;-58
2022/08/05 06:55:41;;;;;;;16.37;13.45;;;;;;;22.20;70.73;100501.22;1744603;81;21056;-60
2022/08/05 06:58:08;;;;;;;19.17;14.25;;;;;;;22.34;70.33;100508.03;1749787;81;21629;-61
2022/08/05 07:00:34;;;;;;;17.77;14.18;;;;;;;22.45;70.50;100518.21;1726104;83;21163;-61
2022/08/05 07:03:01;;;;;;;17.20;14.00;;;;;;;22.51;69.72;100515.23;1752225;80;21105;-61
2022/08/05 07:05:27;;;;;;;16.07;12.93;;;;;;;22.52;69.51;100519.59;1749457;81;21559;-62
2022/08/05 07:07:54;;;;;;;21.85;14.28;;;;;;;22.58;69.35;100516.13;1751099;80;21483;-59
2022/08/05 07:10:21;;;;;;;20.10;15.25;;;;;;;22.56;69.01;100524.37;1749103;80;21062;-59
2022/08/05 07:18:17;;;;;;;20.80;16.67;;;;;;;22.45;69.51;100516.88;1723252;82;21116;-59
2022/08/05 07:20:43;;;;;;;21.23;18.75;;;;;;;22.45;69.83;100516.88;1726694;82;21037;-58
2022/08/05 07:23:10;;;;;;;25.80;19.10;;;;;;;22.47;69.77;100519.36;1725633;82;21182;-58
2022/08/05 07:25:36;;;;;;;23.98;18.12;;;;;;;22.41;69.79;100524.48;1728677;81;21130;-58
2022/08/05 07:28:03;;;;;;;19.07;15.50;;;;;;;22.30;70.01;100516.98;1724073;82;21053;-58
2022/08/05 07:30:33;;;;;;;20.37;17.30;;;;;;;22.23;70.13;100520.11;1730166;82;21109;-57
2022/08/05 07:33:03;;;;;;;17.20;15.38;;;;;;;22.22;70.36;100517.11;1727347;82;21034;-57
2022/08/05 07:35:30;;;;;;;21.07;15.70;;;;;;;22.27;70.61;100514.66;1730432;82;21124;-59
2022/08/05 07:37:57;;;;;;;17.27;14.60;;;;;;;22.33;70.81;100513.09;1727703;82;21321;-58
2022/08/05 07:40:23;;;;;;;19.48;14.63;;;;;;;22.41;70.57;100523.14;1726799;82;21067;-59
2022/08/05 07:42:50;;;;;;;20.32;15.90;;;;;;;22.54;70.55;100519.69;1729099;82;21123;-59
2022/08/05 07:45:16;;;;;;;19.57;16.40;;;;;;;22.66;69.85;100520.48;1720638;82;21080;-61
2022/08/05 07:47:43;;;;;;;18.48;15.23;;;;;;;22.68;69.69;100525.97;1723357;81;21048;-59
2022/08/05 07:50:09;;;;;;;18.60;16.30;;;;;;;22.67;69.90;100528.33;1737091;82;21245;-59
2022/08/05 07:52:40;;;;;;;17.82;14.90;;;;;;;22.66;69.83;100530.68;1719505;82;20988;-61
2022/08/05 07:55:08;;;;;;;18.27;14.60;;;;;;;22.67;69.55;100531.01;1736688;81;21096;-58
2022/08/05 07:57:35;;;;;;;17.10;14.63;;;;;;;22.71;69.68;100536.31;1726437;82;21026;-60
2022/08/05 08:00:04;;;;;;;17.15;15.15;;;;;;;22.84;69.83;100533.36;1730815;82;21029;-59
2022/08/05 08:02:33;;;;;;;18.85;15.90;;;;;;;22.95;69.31;100532.27;1730152;81;21094;-58
2022/08/05 08:05:00;;;;;;;17.67;14.73;;;;;;;23.10;69.30;100527.28;1711126;81;21535;-59
2022/08/05 08:07:26;;;;;;;19.02;16.40;;;;;;;23.21;68.67;100523.20;1712362;82;21116;-59
2022/08/05 08:09:53;;;;;;;17.67;15.75;;;;;;;23.27;68.22;100525.08;1710290;82;21064;-60
2022/08/05 08:12:22;;;;;;;19.95;15.70;;;;;;;23.29;68.00;100529.72;1716863;82;21032;-59
2022/08/05 08:14:50;;;;;;;18.35;16.00;;;;;;;23.36;67.87;100534.58;1727028;81;21085;-59
2022/08/05 08:17:18;;;;;;;19.12;16.02;;;;;;;23.46;68.11;100531.52;1738657;82;21067;-64
2022/08/05 08:19:44;;;;;;;20.17;17.48;;;;;;;23.63;67.80;100533.28;1738762;81;21061;-59
2022/08/05 08:22:11;;;;;;;18.37;16.48;;;;;;;23.71;66.82;100525.03;1734814;80;21043;-59
2022/08/05 08:24:38;;;;;;;21.45;17.73;;;;;;;23.78;66.55;100528.53;1734585;80;21048;-59
2022/08/05 08:27:05;;;;;;;19.67;15.48;;;;;;;23.76;66.07;100531.14;1740339;80;21116;-61
2022/08/05 08:29:31;;;;;;;17.37;15.23;;;;;;;23.74;65.89;100536.19;1735801;80;21045;-61
2022/08/05 08:31:58;;;;;;;17.23;15.28;;;;;;;23.76;65.88;100533.30;1734034;81;21102;-61
2022/08/05 08:34:25;;;;;;;17.95;15.30;;;;;;;23.73;65.82;100531.83;1741745;82;21094;-59
2022/08/05 08:36:52;;;;;;;18.67;16.37;;;;;;;23.76;66.47;100540.02;1742077;81;21527;-60
2022/08/05 08:39:18;;;;;;;17.85;14.75;;;;;;;23.81;66.32;100537.53;1737339;80;21923;-62
2022/08/05 08:41:47;;;;;;;17.17;15.08;;;;;;;23.79;65.76;100543.63;1739956;80;21106;-63
2022/08/05 08:44:15;;;;;;;17.73;14.68;;;;;;;23.71;65.80;100550.55;1740296;81;21049;-60
2022/08/05 08:46:41;;;;;;;18.32;14.40;;;;;;;23.73;66.03;100544.45;1725483;80;21071;-61
2022/08/05 08:49:08;;;;;;;18.77;16.10;;;;;;;23.79;66.30;100546.32;1740235;80;21100;-61
2022/08/05 08:51:36;;;;;;;20.92;15.23;;;;;;;23.83;66.18;100547.58;1738249;80;21196;-60
2022/08/05 08:54:02;;;;;;;18.05;14.90;;;;;;;23.80;66.00;100551.17;1735601;81;21092;-61
2022/08/05 08:56:29;;;;;;;18.65;14.90;;;;;;;23.73;65.80;100549.82;1708715;82;21112;-61
2022/08/05 08:58:58;;;;;;;21.60;16.10;;;;;;;23.62;66.11;100542.36;1739137;81;21074;-63
2022/08/05 09:01:24;;;;;;;17.98;15.05;;;;;;;23.63;66.31;100550.75;1740958;82;21088;-62
2022/08/05 09:03:52;;;;;;;17.35;15.55;;;;;;;23.68;66.63;100553.11;1738718;81;21131;-60
2022/08/05 09:06:19;;;;;;;18.27;15.88;;;;;;;23.76;66.67;100551.28;1740050;81;21092;-60
2022/08/05 09:08:46;;;;;;;19.20;17.07;;;;;;;23.75;66.38;100551.78;1733532;81;21059;-62
2022/08/05 09:11:13;;;;;;;20.05;16.37;;;;;;;23.75;66.39;100549.09;1732798;80;21078;-60
2022/08/05 09:13:41;;;;;;;21.15;17.07;;;;;;;23.78;66.66;100550.55;1738526;81;21132;-61
2022/08/05 09:16:10;;;;;;;17.05;15.25;;;;;;;23.83;66.10;100537.36;1745768;80;21131;-59
2022/08/05 09:18:36;;;;;;;16.90;15.08;;;;;;;23.90;65.72;100538.99;1747161;81;21040;-59
2022/08/05 09:21:03;;;;;;;18.10;14.70;;;;;;;23.92;65.44;100542.82;1749955;82;21344;-59
2022/08/05 09:23:30;;;;;;;20.82;15.98;;;;;;;23.87;65.50;100547.50;1742838;80;21398;-59
2022/08/05 09:26:09;;;;;;;18.37;14.78;;;;;;;23.84;65.61;100543.88;1748852;82;21484;-60
2022/08/05 09:28:37;;;;;;;16.52;14.35;;;;;;;23.77;65.86;100552.92;1744653;81;21140;-58
2022/08/05 09:31:07;;;;;;;17.87;15.08;;;;;;;23.70;65.92;100555.10;1749223;82;21651;-59
2022/08/05 09:33:57;;;;;;;17.90;13.95;;;;;;;23.71;66.28;100559.95;1747073;81;21088;-58
2022/08/05 09:36:25;;;;;;;20.10;14.85;;;;;;;23.72;66.27;100556.21;1747425;80;21084;-59
2022/08/05 09:39:00;;;;;;;17.37;15.18;;;;;;;23.71;66.28;100563.98;1745732;80;21399;-59
2022/08/05 09:41:27;;;;;;;16.50;14.38;;;;;;;23.73;66.15;100561.38;1745557;81;21117;-58
2022/08/05 09:43:53;;;;;;;16.42;13.20;;;;;;;23.77;65.99;100563.17;1739647;81;21072;-60
2022/08/05 09:46:32;;;;;;;15.78;13.18;;;;;;;23.80;65.70;100557.88;1749487;81;21062;-59
2022/08/05 09:49:03;;;;;;;18.60;14.65;;;;;;;23.84;65.39;100570.74;1747466;81;21157;-59
2022/08/05 09:51:33;;;;;;;16.87;13.53;;;;;;;23.90;65.88;100563.17;1743381;81;21096;-58
2022/08/05 09:54:00;;;;;;;15.15;12.78;;;;;;;24.00;65.91;100562.77;1736216;81;22111;-58
2022/08/05 09:56:29;;;;;;;17.73;14.53;;;;;;;24.09;65.39;100562.04;1748152;80;21538;-58
2022/08/05 09:59:05;;;;;;;15.13;12.75;;;;;;;24.17;65.11;100555.64;1745915;81;21028;-57
2022/08/05 10:01:35;;;;;;;15.78;13.40;;;;;;;24.28;64.85;100563.89;1745894;80;21060;-58
2022/08/05 10:04:12;;;;;;;14.60;11.88;;;;;;;24.41;64.48;100563.06;1740389;81;21510;-59
2022/08/05 10:06:46;;;;;;;15.55;13.32;;;;;;;24.48;64.15;100561.70;1725715;82;21270;-58
2022/08/05 10:09:17;;;;;;;13.35;11.97;;;;;;;24.49;63.41;100555.27;1730816;81;21043;-58
2022/08/05 10:11:44;;;;;;;14.50;12.68;;;;;;;24.44;63.54;100556.42;1748828;80;21076;-59
2022/08/05 10:14:27;;;;;;;15.63;12.10;;;;;;;24.42;63.87;100559.31;1734430;81;22223;-58
2022/08/05 10:16:57;;;;;;;14.38;12.10;;;;;;;24.44;63.46;100560.45;1728648;80;21545;-59
2022/08/05 10:19:26;;;;;;;14.30;12.15;;;;;;;24.44;63.38;100556.42;1742134;80;21143;-59
2022/08/05 10:21:52;;;;;;;14.83;11.78;;;;;;;24.51;63.51;100561.78;1679556;83;21051;-59
2022/08/05 10:24:20;;;;;;;15.85;11.97;;;;;;;24.59;63.43;100562.41;1743722;80;21111;-59
2022/08/05 10:26:48;;;;;;;15.75;12.95;;;;;;;24.60;63.46;100564.08;1747305;81;21113;-59
2022/08/05 10:29:14;;;;;;;16.32;12.73;;;;;;;24.62;63.62;100563.34;1748016;81;21067;-59
2022/08/05 10:31:41;;;;;;;14.63;12.75;;;;;;;24.62;63.36;100566.55;1747905;80;21130;-59
2022/08/05 10:34:08;;;;;;;13.88;11.90;;;;;;;24.60;63.18;100572.67;1740472;81;21061;-58
2022/08/05 10:36:36;;;;;;;15.88;11.75;;;;;;;24.58;63.12;100571.53;1732840;82;21065;-59
2022/08/05 10:39:08;;;;;;;14.30;12.13;;;;;;;24.63;63.27;100570.38;1740016;81;21075;-59
2022/08/05 10:41:38;;;;;;;18.20;15.15;;;;;;;24.67;63.23;100572.13;1742259;81;22701;-59
2022/08/05 10:44:08;;;;;;;15.38;12.37;;;;;;;24.69;63.08;100567.35;1743762;81;22110;-59
2022/08/05 10:46:51;;;;;;;16.20;13.50;;;;;;;24.63;63.30;100565.00;1750713;82;21483;-60
2022/08/05 10:49:18;;;;;;;14.15;12.43;;;;;;;24.61;63.43;100568.92;1742392;80;21105;-58
2022/08/05 10:51:48;;;;;;;14.80;12.03;;;;;;;24.70;63.65;100563.64;1746829;82;21054;-58
2022/08/05 10:54:15;;;;;;;15.03;12.75;;;;;;;24.84;63.65;100565.23;1746599;81;21700;-59
2022/08/05 10:56:47;;;;;;;16.23;13.00;;;;;;;25.00;63.17;100553.17;1750240;82;21131;-58
2022/08/05 10:59:28;;;;;;;17.55;13.68;;;;;;;25.07;62.65;100555.83;1737211;81;21067;-61
2022/08/05 11:02:12;;;;;;;15.25;13.62;;;;;;;25.14;62.45;100555.80;1739982;81;21078;-61
2022/08/05 11:04:47;;;;;;;16.05;14.25;;;;;;;25.14;62.35;100553.92;1742215;80;21052;-64
2022/08/05 11:07:17;;;;;;;15.90;13.85;;;;;;;25.10;62.42;100553.22;1743969;82;21050;-63
2022/08/05 11:09:49;;;;;;;14.53;12.73;;;;;;;25.07;62.48;100553.14;1740358;81;21968;-63
2022/08/05 11:12:41;;;;;;;14.60;11.95;;;;;;;25.15;62.88;100551.55;1746340;81;21101;-62
2022/08/05 11:15:29;;;;;;;13.93;11.70;;;;;;;25.32;62.62;100543.82;1750100;81;21554;-63
2022/08/05 11:18:09;;;;;;;14.40;12.82;;;;;;;25.61;62.18;100542.91;1750419;80;21541;-62
2022/08/05 11:20:44;;;;;;;15.30;12.63;;;;;;;25.91;61.40;100543.61;1754316;80;21049;-62
2022/08/05 11:23:37;;;;;;;15.75;13.60;;;;;;;26.10;61.58;100539.92;1750506;80;21113;-57
2022/08/05 11:26:20;;;;;;;17.05;14.18;;;;;;;26.35;59.66;100537.72;1752873;81;21051;-58
2022/08/05 11:28:52;;;;;;;14.58;12.58;;;;;;;26.47;59.31;100531.06;1756559;81;21718;-58